Time;durP1;ratioP1;P1;durP2;ratioP2;P2;SDS_P1;SDS_P2;PMS_P1;PMS_P2;Temp;Humidity;BMP_temperature;BMP_pressure;BME280_temperature;BME280_humidity;BME280_pressure;Samples;Min_cycle;Max_cycle;Signal;HPM_P1;HPM_P2
2021/05/22 00:00:50;;;;;;;0.87;0.87;;;;;;;9.84;72.52;95929.59;5030646;28;20183;-65
2021/05/22 00:03:16;;;;;;;0.80;0.80;;;;;;;9.86;72.33;95954.47;5030021;28;20352;-66
2021/05/22 00:05:41;;;;;;;1.63;0.80;;;;;;;9.91;72.21;95967.63;5030882;28;20265;-66
2021/05/22 00:08:07;;;;;;;1.00;1.00;;;;;;;9.90;72.07;95962.63;5012725;28;20628;-65
2021/05/22 00:10:33;;;;;;;0.80;0.80;;;;;;;9.85;72.53;95958.13;5030083;28;20191;-66
2021/05/22 00:12:58;;;;;;;0.80;0.80;;;;;;;9.85;72.14;95970.44;5030792;28;20187;-66
2021/05/22 00:15:24;;;;;;;0.73;0.73;;;;;;;9.79;72.25;95971.38;5029572;28;20639;-66
2021/05/22 00:17:49;;;;;;;0.90;0.90;;;;;;;9.78;72.00;95957.50;5030229;28;20179;-65
2021/05/22 00:20:15;;;;;;;0.97;0.97;;;;;;;9.77;72.13;95968.22;5029790;28;20190;-66
2021/05/22 00:22:41;;;;;;;0.93;0.93;;;;;;;9.74;71.84;95972.13;5030626;28;20265;-66
2021/05/22 00:25:08;;;;;;;0.60;0.60;;;;;;;9.64;71.52;95964.09;5012584;28;20269;-65
2021/05/22 00:27:33;;;;;;;0.93;0.90;;;;;;;9.55;71.35;95962.94;5030240;28;20194;-66
2021/05/22 00:29:59;;;;;;;0.80;0.80;;;;;;;9.59;70.91;95958.78;5030849;28;20544;-66
2021/05/22 00:32:24;;;;;;;1.87;0.97;;;;;;;9.57;70.93;95960.88;5029826;28;20194;-65
2021/05/22 00:34:50;;;;;;;0.80;0.80;;;;;;;9.58;70.83;95952.78;5030027;28;20240;-65
2021/05/22 00:37:15;;;;;;;1.10;1.10;;;;;;;9.49;70.88;95963.88;5011980;28;20206;-65
2021/05/22 00:39:41;;;;;;;0.80;0.80;;;;;;;9.50;70.96;95976.75;5030502;28;20183;-65
2021/05/22 00:42:06;;;;;;;0.73;0.73;;;;;;;9.55;71.18;95976.00;5030639;28;20203;-65
2021/05/22 00:44:32;;;;;;;0.90;0.90;;;;;;;9.42;71.36;95958.03;5029586;28;20643;-65
2021/05/22 00:46:59;;;;;;;0.93;0.90;;;;;;;9.47;71.20;95981.66;5030040;28;20195;-65
2021/05/22 00:49:25;;;;;;;0.90;0.90;;;;;;;9.43;71.14;95983.16;5028999;28;20307;-65
2021/05/22 00:51:51;;;;;;;0.80;0.80;;;;;;;9.36;72.01;95978.06;5030651;28;20705;-65
2021/05/22 00:54:18;;;;;;;0.83;0.83;;;;;;;9.39;72.12;95974.22;5033042;28;20269;-65
2021/05/22 00:56:44;;;;;;;1.00;1.00;;;;;;;9.30;72.09;95962.56;5033561;28;20212;-66
2021/05/22 00:59:14;;;;;;;0.90;0.90;;;;;;;9.27;72.42;95966.44;5033729;28;20189;-65
2021/05/22 01:01:39;;;;;;;1.70;1.13;;;;;;;9.30;72.77;95962.56;5033592;28;20230;-65
2021/05/22 01:04:05;;;;;;;1.00;0.90;;;;;;;9.14;72.99;95953.69;5033620;28;20194;-65
2021/05/22 01:06:32;;;;;;;0.97;0.97;;;;;;;9.14;73.47;95957.09;5032860;28;20375;-65
2021/05/22 01:09:09;;;;;;;0.97;0.97;;;;;;;9.11;74.07;95959.38;5015442;28;20182;-65
2021/05/22 01:11:55;;;;;;;1.27;0.83;;;;;;;9.08;74.13;95970.34;5033225;28;20179;-65
2021/05/22 01:14:28;;;;;;;0.83;0.83;;;;;;;9.11;74.33;95975.06;5032318;28;20183;-65
2021/05/22 01:16:58;;;;;;;0.90;0.90;;;;;;;9.12;74.64;95980.06;5033042;28;20666;-65
2021/05/22 01:19:38;;;;;;;0.87;0.80;;;;;;;9.09;74.71;95990.19;5016568;28;20190;-65
2021/05/22 01:22:04;;;;;;;0.90;0.90;;;;;;;9.10;74.74;95992.59;5033158;28;20186;-65
2021/05/22 01:24:32;;;;;;;0.97;0.97;;;;;;;9.05;74.90;95982.03;5032322;28;20190;-65
2021/05/22 01:26:58;;;;;;;1.33;0.90;;;;;;;9.05;75.24;95989.88;5032748;28;20189;-65
2021/05/22 01:29:24;;;;;;;1.00;1.00;;;;;;;9.04;75.22;95985.69;5032032;28;20182;-65
2021/05/22 01:31:49;;;;;;;1.00;1.00;;;;;;;9.06;75.15;95973.19;5033507;28;20277;-65
2021/05/22 01:34:15;;;;;;;2.27;1.23;;;;;;;9.16;74.83;95973.34;5032430;28;20256;-66
2021/05/22 01:36:41;;;;;;;1.27;1.00;;;;;;;9.10;75.09;95999.63;5032748;28;20269;-66
2021/05/22 01:39:06;;;;;;;1.00;1.00;;;;;;;9.01;75.63;95994.00;5033308;28;20230;-65
2021/05/22 01:41:32;;;;;;;1.00;0.97;;;;;;;9.08;75.49;96009.53;5032265;28;20289;-65
2021/05/22 01:44:00;;;;;;;1.40;1.30;;;;;;;9.05;75.49;95995.13;5033185;28;20218;-65
2021/05/22 01:46:27;;;;;;;1.40;1.10;;;;;;;9.08;75.31;95994.63;5032320;28;20182;-65
2021/05/22 01:48:53;;;;;;;0.97;0.97;;;;;;;9.16;75.32;96012.56;5014990;28;20190;-65
2021/05/22 01:51:23;;;;;;;0.97;0.97;;;;;;;9.26;74.71;95995.44;5032399;28;20187;-65
2021/05/22 01:53:49;;;;;;;1.07;1.07;;;;;;;9.27;75.19;96020.56;5015155;28;20528;-65
2021/05/22 01:56:15;;;;;;;0.90;0.90;;;;;;;9.29;74.64;96016.69;5031889;28;20213;-66
2021/05/22 01:58:41;;;;;;;1.40;0.90;;;;;;;9.36;74.76;96006.84;5032814;28;20244;-66
2021/05/22 02:01:11;;;;;;;2.20;1.10;;;;;;;9.41;74.46;96029.69;5032216;28;20226;-65
2021/05/22 02:03:41;;;;;;;0.83;0.83;;;;;;;9.47;74.21;96031.38;5026008;28;20194;-65
2021/05/22 02:06:22;;;;;;;2.47;1.00;;;;;;;9.51;73.82;96027.22;5032330;28;20589;-66
2021/05/22 02:08:52;;;;;;;1.87;1.10;;;;;;;9.52;74.04;96029.63;5032011;28;20183;-66
2021/05/22 02:11:19;;;;;;;1.03;1.03;;;;;;;9.60;74.22;96025.78;5032140;28;20209;-66
2021/05/22 02:13:44;;;;;;;1.73;1.10;;;;;;;9.60;73.64;96033.66;5032484;28;20616;-65
2021/05/22 02:16:12;;;;;;;0.90;0.90;;;;;;;9.60;74.03;96021.34;5032003;28;20183;-65
2021/05/22 02:18:40;;;;;;;0.77;0.77;;;;;;;9.54;74.22;96034.59;5031966;28;20194;-65
2021/05/22 02:21:08;;;;;;;1.13;0.93;;;;;;;9.50;74.30;96033.50;5014381;28;20206;-65
2021/05/22 02:23:38;;;;;;;0.87;0.87;;;;;;;9.66;73.84;96034.50;5031717;28;20199;-65
2021/05/22 02:26:04;;;;;;;1.60;0.93;;;;;;;9.58;74.42;96031.25;5032144;28;20196;-65
2021/05/22 02:28:35;;;;;;;1.10;1.00;;;;;;;9.54;74.75;96035.38;5031471;28;20182;-65
2021/05/22 02:31:02;;;;;;;0.90;0.90;;;;;;;9.57;76.40;96040.16;5032015;28;20644;-65
2021/05/22 02:33:28;;;;;;;1.53;1.13;;;;;;;9.65;77.67;96033.72;5030664;28;21068;-65
2021/05/22 02:35:55;;;;;;;1.13;1.10;;;;;;;9.47;79.37;96039.97;5031776;28;20336;-66
2021/05/22 02:38:26;;;;;;;0.93;0.93;;;;;;;9.32;81.57;96041.56;5015651;28;20191;-66
2021/05/22 02:40:56;;;;;;;1.20;1.20;;;;;;;9.18;84.29;96059.38;5032170;28;20171;-66
2021/05/22 02:43:24;;;;;;;1.30;1.30;;;;;;;8.99;86.99;96069.22;5012839;28;20278;-66
2021/05/22 02:45:50;;;;;;;1.90;1.30;;;;;;;8.97;88.00;96070.50;5031716;28;20187;-66
2021/05/22 02:48:19;;;;;;;1.20;1.20;;;;;;;8.42;90.66;96055.31;5030465;28;20187;-66
2021/05/22 02:50:47;;;;;;;2.17;1.17;;;;;;;8.45;92.31;96036.59;5018703;28;20256;-66
2021/05/22 02:53:14;;;;;;;1.20;1.10;;;;;;;8.44;92.24;96052.50;5031706;28;20183;-66
2021/05/22 02:55:40;;;;;;;0.90;0.90;;;;;;;8.38;93.97;96051.59;5030980;28;20175;-65
2021/05/22 02:58:07;;;;;;;1.47;1.37;;;;;;;8.51;94.21;96051.34;5031366;28;20194;-66
2021/05/22 03:00:33;;;;;;;1.00;1.00;;;;;;;8.49;93.81;96042.94;5012578;28;20213;-65
2021/05/22 03:03:03;;;;;;;1.10;1.10;;;;;;;8.39;94.18;96045.34;5031671;28;20687;-66
2021/05/22 03:05:30;;;;;;;1.10;1.10;;;;;;;8.42;93.80;96034.44;5030218;28;20270;-65
2021/05/22 03:07:55;;;;;;;1.13;1.13;;;;;;;8.42;94.52;96031.81;5015049;28;20729;-66
2021/05/22 03:10:21;;;;;;;1.27;1.13;;;;;;;8.42;94.99;96034.44;5030439;28;20179;-67
2021/05/22 03:12:47;;;;;;;1.10;1.10;;;;;;;8.33;94.58;96022.78;5031195;28;20240;-65
2021/05/22 03:15:12;;;;;;;1.23;1.17;;;;;;;8.46;95.21;96021.72;5031039;28;20187;-65
2021/05/22 03:17:38;;;;;;;2.10;1.20;;;;;;;8.45;94.73;96012.31;5030422;28;20195;-65
2021/05/22 03:20:05;;;;;;;1.17;1.17;;;;;;;8.38;93.91;96022.88;5031081;28;20186;-66
2021/05/22 03:22:31;;;;;;;1.20;1.10;;;;;;;8.44;93.91;96024.56;5030134;28;20206;-67
2021/05/22 03:24:56;;;;;;;2.20;1.33;;;;;;;8.35;94.42;96031.19;5031076;28;20179;-67
2021/05/22 03:27:22;;;;;;;2.23;1.20;;;;;;;8.37;94.09;96028.31;5030497;28;20182;-67
2021/05/22 03:29:47;;;;;;;1.33;1.23;;;;;;;8.36;94.39;96031.97;5031192;28;20174;-67
2021/05/22 03:32:13;;;;;;;1.30;1.30;;;;;;;8.19;95.36;96032.63;5031263;28;20614;-67
2021/05/22 03:34:38;;;;;;;3.03;1.30;;;;;;;8.22;94.51;96032.19;5030392;28;20193;-67
2021/05/22 03:37:03;;;;;;;1.23;1.23;;;;;;;8.18;93.04;96038.09;5013363;28;20179;-67
2021/05/22 03:39:29;;;;;;;1.80;1.20;;;;;;;8.15;94.34;96041.94;5030000;28;20191;-66
2021/05/22 03:41:54;;;;;;;1.10;1.10;;;;;;;8.10;93.97;96041.06;5031070;28;20241;-66
2021/05/22 03:44:20;;;;;;;2.30;1.20;;;;;;;7.99;94.12;96045.25;5030355;28;20240;-66
2021/05/22 03:46:45;;;;;;;2.57;1.17;;;;;;;8.02;94.84;96049.25;5030564;28;20182;-66
2021/05/22 03:49:10;;;;;;;1.20;1.10;;;;;;;8.06;94.14;96053.78;5013124;28;20190;-65
2021/05/22 03:51:36;;;;;;;1.53;1.10;;;;;;;8.21;93.88;96058.50;5029984;28;20205;-67
2021/05/22 03:54:02;;;;;;;1.17;1.17;;;;;;;8.20;92.85;96049.88;5031678;28;20174;-67
2021/05/22 03:56:28;;;;;;;1.70;1.27;;;;;;;8.20;92.00;96062.94;5030497;28;20218;-67
2021/05/22 03:58:53;;;;;;;4.17;1.13;;;;;;;8.19;90.68;96061.34;5030754;28;20312;-67
2021/05/22 04:01:20;;;;;;;1.20;1.20;;;;;;;8.29;90.49;96066.00;5029889;28;20669;-66
2021/05/22 04:03:45;;;;;;;1.73;1.10;;;;;;;8.19;90.94;96063.19;5012380;28;20592;-67
2021/05/22 04:06:10;;;;;;;2.10;1.13;;;;;;;8.19;90.84;96058.72;5030821;28;20191;-67
2021/05/22 04:08:36;;;;;;;1.30;1.20;;;;;;;8.28;90.78;96061.81;5029736;28;20174;-67
2021/05/22 04:11:01;;;;;;;1.20;1.10;;;;;;;8.32;90.57;96058.53;5031549;28;20240;-67
2021/05/22 04:13:27;;;;;;;1.00;1.00;;;;;;;8.36;90.12;96058.09;5030045;28;20666;-64
2021/05/22 04:15:52;;;;;;;1.10;1.10;;;;;;;8.42;89.19;96049.31;5030116;28;20537;-66
2021/05/22 04:18:18;;;;;;;1.30;1.20;;;;;;;8.49;88.94;96048.16;5030220;28;20182;-66
2021/05/22 04:20:43;;;;;;;1.57;1.10;;;;;;;8.50;89.03;96064.63;5030823;28;20201;-66
2021/05/22 04:23:09;;;;;;;1.53;1.27;;;;;;;8.49;88.85;96045.56;5012830;28;20289;-66
2021/05/22 04:25:34;;;;;;;1.23;1.17;;;;;;;8.44;87.87;96027.16;5025811;28;20213;-66
2021/05/22 04:27:59;;;;;;;1.37;1.00;;;;;;;8.49;88.14;96023.88;5032644;28;20175;-66
2021/05/22 04:30:25;;;;;;;1.90;1.20;;;;;;;8.36;89.45;96047.63;5033615;28;20594;-66
2021/05/22 04:32:51;;;;;;;1.30;1.20;;;;;;;8.43;89.97;96043.06;5034521;28;20270;-66
2021/05/22 04:35:17;;;;;;;1.27;1.20;;;;;;;8.41;89.71;96043.31;5033548;28;20269;-66
2021/05/22 04:37:42;;;;;;;1.13;1.13;;;;;;;8.41;88.81;96037.28;5034211;28;20194;-67
2021/05/22 04:40:08;;;;;;;1.50;1.40;;;;;;;8.30;89.56;96034.47;5016786;28;20187;-66
2021/05/22 04:42:34;;;;;;;1.17;1.17;;;;;;;8.34;89.00;96034.81;5033553;28;20297;-66
2021/05/22 04:45:01;;;;;;;1.40;1.30;;;;;;;8.45;88.07;96036.59;5034089;28;20185;-67
2021/05/22 04:47:27;;;;;;;1.10;1.10;;;;;;;8.45;88.00;96047.03;5032675;28;20195;-67
2021/05/22 04:49:53;;;;;;;1.10;1.10;;;;;;;8.55;87.74;96036.78;5033983;28;20648;-65
2021/05/22 04:52:21;;;;;;;1.00;1.00;;;;;;;8.81;86.67;96030.22;5033561;28;20197;-64
2021/05/22 04:54:46;;;;;;;1.00;1.00;;;;;;;9.29;84.78;96026.34;5034233;28;20178;-64
2021/05/22 04:57:12;;;;;;;1.13;1.13;;;;;;;9.69;81.52;96034.06;5033719;28;20196;-64
2021/05/22 04:59:37;;;;;;;0.80;0.80;;;;;;;10.21;80.32;96037.16;5033686;28;20202;-65
2021/05/22 05:02:03;;;;;;;0.93;0.93;;;;;;;10.53;78.12;96045.97;5033492;28;20675;-66
2021/05/22 05:04:28;;;;;;;0.90;0.90;;;;;;;10.96;76.34;96055.63;5032809;28;20190;-66
2021/05/22 05:06:53;;;;;;;0.60;0.60;;;;;;;11.04;75.48;96054.34;5033771;28;20670;-66
2021/05/22 05:09:20;;;;;;;0.73;0.73;;;;;;;11.10;74.51;96056.78;5032221;28;20179;-67
2021/05/22 05:11:45;;;;;;;0.70;0.70;;;;;;;10.92;75.37;96054.53;5015332;28;20271;-67
2021/05/22 05:14:11;;;;;;;0.80;0.80;;;;;;;10.63;75.90;96059.19;5033908;28;20267;-67
2021/05/22 05:16:36;;;;;;;0.70;0.70;;;;;;;10.20;77.87;96056.50;5033003;28;21074;-65
2021/05/22 05:19:02;;;;;;;0.80;0.80;;;;;;;9.92;78.98;96052.97;5033514;28;20175;-66
2021/05/22 05:21:27;;;;;;;0.77;0.77;;;;;;;10.28;78.45;96049.03;5032825;28;20185;-66
2021/05/22 05:23:53;;;;;;;0.90;0.90;;;;;;;10.80;76.58;96067.75;5015753;28;20198;-65
2021/05/22 05:26:18;;;;;;;0.80;0.80;;;;;;;11.42;74.16;96050.81;5032472;28;20259;-65
2021/05/22 05:28:43;;;;;;;0.50;0.50;;;;;;;11.93;72.94;96065.13;5033888;28;20541;-65
2021/05/22 05:31:09;;;;;;;1.70;0.60;;;;;;;12.25;71.52;96063.25;5033710;28;20171;-65
2021/05/22 05:33:35;;;;;;;0.50;0.50;;;;;;;12.36;70.65;96069.34;5032254;28;20785;-65
2021/05/22 05:36:00;;;;;;;0.50;0.50;;;;;;;12.49;69.82;96069.66;5033064;28;20206;-65
2021/05/22 05:38:25;;;;;;;0.77;0.77;;;;;;;12.20;71.12;96065.06;5031918;28;20182;-65
2021/05/22 05:40:54;;;;;;;0.70;0.60;;;;;;;11.51;73.88;96075.53;5032648;28;20615;-66
2021/05/22 05:43:20;;;;;;;0.60;0.60;;;;;;;11.56;74.38;96080.81;5032173;28;20293;-66
2021/05/22 05:45:45;;;;;;;1.27;0.60;;;;;;;11.31;75.63;96070.91;5032752;28;20582;-65
2021/05/22 05:48:10;;;;;;;4.33;0.70;;;;;;;11.39;75.76;96077.53;5032530;28;20194;-65
2021/05/22 05:50:36;;;;;;;0.80;0.80;;;;;;;11.34;76.44;96086.16;5032217;28;20183;-66
2021/05/22 05:53:02;;;;;;;0.83;0.83;;;;;;;11.41;76.28;96078.88;5033368;28;20264;-66
2021/05/22 05:55:28;;;;;;;1.07;1.00;;;;;;;11.42;76.43;96079.66;5032066;28;20662;-66
2021/05/22 05:57:55;;;;;;;1.17;0.77;;;;;;;11.35;76.27;96079.06;5032583;28;20191;-66
2021/05/22 06:00:22;;;;;;;2.27;1.00;;;;;;;11.40;75.92;96086.97;5031556;28;20666;-66
2021/05/22 06:02:47;;;;;;;1.87;1.10;;;;;;;11.41;76.95;96085.94;5032289;28;20254;-67
2021/05/22 06:05:13;;;;;;;1.20;1.10;;;;;;;11.28;77.44;96081.88;5032487;28;20273;-66
2021/05/22 06:07:39;;;;;;;1.00;1.00;;;;;;;11.48;75.95;96083.91;5031518;28;20195;-66
2021/05/22 06:10:06;;;;;;;1.33;0.90;;;;;;;11.70;74.91;96094.34;5032201;28;20257;-67
2021/05/22 06:12:33;;;;;;;0.80;0.80;;;;;;;11.72;74.46;96093.03;5032032;28;20260;-67
2021/05/22 06:15:08;;;;;;;0.80;0.80;;;;;;;12.12;71.80;96094.41;5032532;28;20230;-67
2021/05/22 06:17:33;;;;;;;0.90;0.90;;;;;;;12.26;71.31;96091.06;5000883;28;20538;-67
2021/05/22 06:19:59;;;;;;;2.30;1.10;;;;;;;11.98;70.79;96094.84;5032598;28;20183;-66
2021/05/22 06:22:24;;;;;;;1.30;1.00;;;;;;;12.15;71.72;96086.81;5013941;28;20681;-67
2021/05/22 06:24:50;;;;;;;0.97;0.87;;;;;;;12.50;70.33;96092.28;5032505;28;20186;-67
2021/05/22 06:27:15;;;;;;;0.63;0.63;;;;;;;12.78;68.12;96104.22;5031626;28;20196;-66
2021/05/22 06:29:40;;;;;;;0.80;0.80;;;;;;;13.27;67.13;96101.25;5032015;28;20174;-66
2021/05/22 06:32:06;;;;;;;0.90;0.90;;;;;;;13.67;66.22;96097.91;5032575;28;20224;-67
2021/05/22 06:34:31;;;;;;;0.80;0.60;;;;;;;14.13;64.36;96096.84;5031218;28;20182;-66
2021/05/22 06:36:57;;;;;;;2.93;0.97;;;;;;;14.61;62.29;96094.66;5014628;28;20920;-66
2021/05/22 06:39:22;;;;;;;0.80;0.80;;;;;;;14.41;60.68;96092.06;5031209;28;20190;-66
2021/05/22 06:41:48;;;;;;;1.03;0.70;;;;;;;14.54;61.47;96080.97;5031274;28;20316;-66
2021/05/22 06:44:22;;;;;;;1.20;0.70;;;;;;;14.57;61.77;96083.06;5022657;28;20179;-67
2021/05/22 06:46:47;;;;;;;1.40;0.90;;;;;;;14.58;61.22;96084.66;5016850;28;20578;-63
2021/05/22 06:49:13;;;;;;;1.60;0.80;;;;;;;14.92;65.13;96082.94;5032000;28;20186;-66
2021/05/22 06:51:38;;;;;;;1.23;0.60;;;;;;;15.32;60.54;96083.78;5013003;28;20373;-66
2021/05/22 06:54:04;;;;;;;0.90;0.90;;;;;;;15.11;59.45;96080.44;5014440;28;20182;-66
2021/05/22 06:56:30;;;;;;;2.05;0.85;;;;;;;14.91;60.11;96085.84;5030508;28;20187;-66
2021/05/22 06:58:55;;;;;;;1.95;0.80;;;;;;;15.16;59.77;96088.34;5031382;28;20907;-67
2021/05/22 07:01:22;;;;;;;0.88;0.60;;;;;;;15.23;58.63;96085.41;5030506;28;20306;-66
2021/05/22 07:03:47;;;;;;;5.30;0.77;;;;;;;15.01;58.17;96079.72;5020319;28;20582;-66
2021/05/22 07:06:13;;;;;;;0.63;0.63;;;;;;;14.37;59.81;96083.13;5030963;28;20199;-66
2021/05/22 07:08:39;;;;;;;0.60;0.60;;;;;;;14.30;59.54;96082.56;5030355;28;20179;-66
2021/05/22 07:11:04;;;;;;;0.90;0.80;;;;;;;14.18;58.91;96084.69;5031745;28;20213;-66
2021/05/22 07:13:30;;;;;;;1.03;0.67;;;;;;;14.01;60.14;96083.16;5030823;28;20243;-66
2021/05/22 07:15:55;;;;;;;1.53;0.70;;;;;;;14.37;57.44;96081.28;5031001;28;20253;-66
2021/05/22 07:18:21;;;;;;;0.70;0.60;;;;;;;14.01;56.20;96085.78;5030658;28;20186;-67
2021/05/22 07:20:46;;;;;;;1.43;0.90;;;;;;;14.26;55.78;96092.88;5013491;28;20187;-66
2021/05/22 07:23:11;;;;;;;1.90;0.77;;;;;;;14.12;55.50;96084.72;5031308;28;20253;-65
2021/05/22 07:25:38;;;;;;;0.87;0.80;;;;;;;14.31;54.98;96087.59;5012853;28;20193;-66
2021/05/22 07:28:06;;;;;;;2.10;0.80;;;;;;;14.40;55.00;96079.94;5013407;28;20185;-66
2021/05/22 07:30:31;;;;;;;0.60;0.60;;;;;;;14.76;54.08;96093.81;5030189;28;20241;-65
2021/05/22 07:32:57;;;;;;;3.37;0.80;;;;;;;15.00;52.94;96094.75;5028026;28;20586;-66
2021/05/22 07:35:22;;;;;;;1.80;0.80;;;;;;;15.11;52.70;96098.13;5029344;28;20194;-66
2021/05/22 07:37:48;;;;;;;0.80;0.80;;;;;;;14.76;52.49;96102.53;5031312;28;20270;-65
2021/05/22 07:40:14;;;;;;;1.67;0.80;;;;;;;14.70;52.01;96090.41;5030738;28;20217;-66
2021/05/22 07:42:40;;;;;;;0.70;0.70;;;;;;;14.70;51.97;96095.69;5030308;28;20213;-66
2021/05/22 07:45:06;;;;;;;1.00;0.70;;;;;;;14.22;52.68;96094.44;5030599;28;20303;-66
2021/05/22 07:47:32;;;;;;;2.23;0.67;;;;;;;14.59;52.43;96107.34;5030238;28;20186;-66
2021/05/22 07:49:58;;;;;;;0.87;0.53;;;;;;;14.77;51.57;96105.94;5013455;28;20213;-66
2021/05/22 07:52:23;;;;;;;0.77;0.60;;;;;;;14.58;51.92;96100.47;5012318;28;20279;-66
2021/05/22 07:54:49;;;;;;;3.63;0.80;;;;;;;14.54;51.88;96102.84;5031132;28;20182;-66
2021/05/22 07:57:16;;;;;;;2.60;1.00;;;;;;;14.44;52.12;96104.72;5030808;28;20191;-66
2021/05/22 07:59:42;;;;;;;1.37;0.70;;;;;;;14.42;51.94;96107.63;5029855;28;20670;-66
2021/05/22 08:02:08;;;;;;;3.37;0.90;;;;;;;14.33;52.72;96103.13;5031033;28;20230;-66
2021/05/22 08:04:34;;;;;;;2.40;0.90;;;;;;;14.51;51.17;96100.75;5033533;28;20198;-66
2021/05/22 08:07:00;;;;;;;1.43;0.50;;;;;;;14.28;51.95;96108.41;5034520;28;20198;-66
2021/05/22 08:09:26;;;;;;;0.97;0.80;;;;;;;14.18;51.90;96103.94;5033306;28;20191;-66
2021/05/22 08:11:51;;;;;;;1.00;0.80;;;;;;;14.23;51.80;96113.69;5034762;28;20183;-66
2021/05/22 08:14:17;;;;;;;1.23;0.60;;;;;;;14.48;50.70;96103.94;5017092;28;20356;-65
2021/05/22 08:16:43;;;;;;;3.07;0.90;;;;;;;14.21;52.05;96092.09;5033221;28;20574;-65
2021/05/22 08:19:10;;;;;;;1.47;0.60;;;;;;;14.17;52.66;96099.72;5017095;28;20277;-65
2021/05/22 08:21:35;;;;;;;0.53;0.53;;;;;;;13.91;52.75;96096.34;5033324;28;20198;-65
2021/05/22 08:24:01;;;;;;;0.50;0.50;;;;;;;13.81;52.20;96098.97;5033998;28;20183;-65
2021/05/22 08:26:27;;;;;;;0.60;0.60;;;;;;;13.52;51.99;96097.88;5033678;28;20660;-65
2021/05/22 08:28:53;;;;;;;1.63;0.70;;;;;;;13.72;51.57;96092.63;5034360;28;20182;-66
2021/05/22 08:31:19;;;;;;;2.83;0.80;;;;;;;13.85;50.54;96081.56;5033978;28;20191;-66
2021/05/22 08:33:45;;;;;;;0.40;0.40;;;;;;;13.97;50.39;96079.47;5033444;28;20189;-66
2021/05/22 08:36:15;;;;;;;2.57;0.90;;;;;;;14.16;50.00;96084.97;5016346;28;20221;-66
2021/05/22 08:38:41;;;;;;;1.33;0.93;;;;;;;14.13;50.05;96078.41;5033589;28;20274;-66
2021/05/22 08:41:08;;;;;;;0.90;0.80;;;;;;;14.27;48.74;96077.81;5034196;28;20186;-66
2021/05/22 08:43:35;;;;;;;1.90;0.70;;;;;;;14.43;49.31;96092.59;5023822;28;20198;-66
2021/05/22 08:46:00;;;;;;;1.50;0.70;;;;;;;14.55;47.61;96080.69;5015869;28;20229;-65
2021/05/22 08:48:25;;;;;;;1.27;0.70;;;;;;;14.52;47.51;96089.16;5032910;28;20588;-66
2021/05/22 08:50:51;;;;;;;1.37;0.80;;;;;;;14.52;47.42;96085.72;5034356;28;20183;-66
2021/05/22 08:53:17;;;;;;;1.17;0.70;;;;;;;14.68;46.15;96081.19;5034009;28;20240;-66
2021/05/22 08:55:44;;;;;;;0.60;0.60;;;;;;;14.88;46.44;96079.25;5031725;28;20186;-67
2021/05/22 08:58:09;;;;;;;1.73;0.87;;;;;;;15.00;46.40;96078.94;5033713;28;20317;-66
2021/05/22 09:00:39;;;;;;;1.00;0.60;;;;;;;14.90;45.71;96073.72;5033214;28;20214;-66
2021/05/22 09:03:06;;;;;;;1.33;0.57;;;;;;;14.99;44.51;96074.72;5033880;28;20226;-66
2021/05/22 09:05:32;;;;;;;1.87;1.10;;;;;;;15.05;44.69;96075.47;5014858;28;20182;-67
2021/05/22 09:08:04;;;;;;;1.73;0.90;;;;;;;15.18;44.78;96073.03;5015650;28;20197;-66
2021/05/22 09:10:36;;;;;;;0.80;0.77;;;;;;;15.27;43.28;96066.09;5032866;28;20213;-66
2021/05/22 09:13:10;;;;;;;0.90;0.67;;;;;;;15.17;43.43;96075.94;5015440;28;20258;-66
2021/05/22 09:15:39;;;;;;;1.80;0.50;;;;;;;15.24;43.13;96079.88;5032329;28;20179;-67
2021/05/22 09:18:06;;;;;;;1.30;0.70;;;;;;;15.12;43.66;96071.47;5015815;28;20640;-66
2021/05/22 09:20:34;;;;;;;0.60;0.60;;;;;;;15.06;43.41;96066.50;5032763;28;20593;-66
2021/05/22 09:23:10;;;;;;;1.50;0.67;;;;;;;14.85;43.01;96060.53;5033404;28;20202;-66
2021/05/22 09:25:38;;;;;;;1.20;0.77;;;;;;;15.16;43.59;96069.06;5014614;28;20214;-66
2021/05/22 09:28:06;;;;;;;0.57;0.53;;;;;;;15.36;42.46;96069.75;5033264;28;20193;-67
2021/05/22 09:30:32;;;;;;;0.97;0.70;;;;;;;15.38;41.03;96085.31;5032140;28;20252;-66
2021/05/22 09:32:58;;;;;;;0.43;0.43;;;;;;;15.38;40.34;96064.97;5033266;28;20253;-67
2021/05/22 09:35:24;;;;;;;1.30;0.60;;;;;;;15.36;40.25;96075.03;5032271;28;20251;-66
2021/05/22 09:37:58;;;;;;;1.77;0.60;;;;;;;15.43;40.63;96073.94;5031012;28;20226;-66
2021/05/22 09:40:26;;;;;;;2.20;0.50;;;;;;;15.42;40.48;96081.09;5032139;28;20190;-67
2021/05/22 09:42:53;;;;;;;0.60;0.60;;;;;;;15.54;40.61;96067.56;5032634;28;20230;-66
2021/05/22 09:45:25;;;;;;;0.55;0.55;;;;;;;15.59;41.40;96075.47;5015211;28;20222;-66
2021/05/22 09:47:51;;;;;;;1.07;0.60;;;;;;;15.57;41.92;96072.28;5033019;28;20269;-67
2021/05/22 09:50:27;;;;;;;1.17;0.90;;;;;;;15.68;45.22;96079.88;5032767;28;20577;-66
2021/05/22 09:52:53;;;;;;;1.03;0.73;;;;;;;15.91;43.00;96077.56;5029899;28;20213;-66
2021/05/22 09:55:20;;;;;;;0.65;0.45;;;;;;;15.98;41.30;96084.13;5030472;28;20209;-67
2021/05/22 09:57:45;;;;;;;0.40;0.40;;;;;;;15.49;39.89;96067.56;5021008;28;20225;-64
2021/05/22 10:00:17;;;;;;;0.57;0.50;;;;;;;15.25;41.44;96088.56;5013906;28;20274;-66
2021/05/22 10:02:50;;;;;;;0.40;0.40;;;;;;;15.43;41.64;96087.16;5024785;28;20219;-66
2021/05/22 10:05:26;;;;;;;1.90;0.70;;;;;;;15.65;41.59;96096.28;5008640;28;20178;-66
2021/05/22 10:07:54;;;;;;;0.70;0.70;;;;;;;15.57;41.66;96093.41;5031914;28;20194;-67
2021/05/22 10:10:21;;;;;;;1.43;0.50;;;;;;;15.67;41.71;96088.06;5032427;28;20662;-66
2021/05/22 10:12:47;;;;;;;0.57;0.57;;;;;;;15.76;41.72;96081.94;5031982;28;20190;-66
2021/05/22 10:15:15;;;;;;;0.73;0.70;;;;;;;15.96;41.26;96094.19;5032516;28;20225;-67
2021/05/22 10:17:42;;;;;;;0.97;0.60;;;;;;;15.90;40.88;96095.28;5031872;28;21047;-66
2021/05/22 10:20:08;;;;;;;1.77;0.50;;;;;;;15.87;41.09;96097.69;5032317;28;20184;-66
2021/05/22 10:22:34;;;;;;;0.65;0.63;;;;;;;15.98;41.36;96092.06;5030710;28;20232;-66
2021/05/22 10:25:03;;;;;;;0.40;0.40;;;;;;;15.96;41.38;96086.25;5014142;28;20183;-67
2021/05/22 10:27:29;;;;;;;1.13;0.70;;;;;;;16.02;41.77;96095.72;5031075;28;20213;-67
2021/05/22 10:29:54;;;;;;;0.68;0.60;;;;;;;16.05;41.55;96095.16;5032368;28;20214;-66
2021/05/22 10:32:26;;;;;;;0.70;0.70;;;;;;;15.93;41.38;96097.38;5031740;28;20182;-67
2021/05/22 10:34:52;;;;;;;0.60;0.60;;;;;;;15.96;40.45;96102.09;5031922;28;20191;-66
2021/05/22 10:37:48;;;;;;;1.33;0.60;;;;;;;16.43;40.55;96096.13;5031853;28;20183;-67
2021/05/22 10:40:19;;;;;;;0.70;0.70;;;;;;;16.36;38.37;96090.38;5031886;28;20194;-67
2021/05/22 10:42:48;;;;;;;2.22;0.60;;;;;;;16.59;38.70;96092.28;5030846;28;20209;-67
2021/05/22 10:45:27;;;;;;;0.60;0.60;;;;;;;16.72;37.17;96090.81;5031414;28;20651;-66
2021/05/22 10:47:54;;;;;;;1.45;0.47;;;;;;;16.79;38.14;96095.75;4998745;28;20178;-66
2021/05/22 10:50:47;;;;;;;0.90;0.50;;;;;;;16.82;36.82;96096.00;5028325;28;20265;-67
2021/05/22 10:53:32;;;;;;;0.45;0.45;;;;;;;17.01;36.43;96102.09;5031758;28;20257;-67
2021/05/22 10:56:16;;;;;;;1.20;0.60;;;;;;;16.98;35.29;96093.97;5031006;28;20186;-66
2021/05/22 10:59:07;;;;;;;0.50;0.50;;;;;;;17.29;36.22;96097.00;5017646;28;20175;-67
2021/05/22 11:01:37;;;;;;;1.15;0.70;;;;;;;17.36;35.26;96092.91;5012888;28;20261;-66
2021/05/22 11:06:55;;;;;;;1.52;0.70;;;;;;;17.42;37.36;96104.22;5030645;28;20187;-67
2021/05/22 11:09:27;;;;;;;0.85;0.70;;;;;;;17.44;36.48;96100.22;5031061;28;20643;-67
2021/05/22 11:11:56;;;;;;;1.50;0.57;;;;;;;17.52;35.10;96092.69;5031138;28;20643;-67
2021/05/22 11:14:42;;;;;;;0.60;0.60;;;;;;;17.50;33.05;96108.88;5030900;28;20198;-67
2021/05/22 11:17:25;;;;;;;1.33;0.60;;;;;;;17.65;33.65;96102.63;5019057;28;20182;-67
2021/05/22 11:19:57;;;;;;;0.73;0.60;;;;;;;17.56;32.46;96099.00;5030973;28;20639;-67
2021/05/22 11:22:23;;;;;;;0.45;0.45;;;;;;;17.50;34.13;96100.16;5030520;28;20206;-67
2021/05/22 11:25:10;;;;;;;0.50;0.50;;;;;;;17.51;34.39;96105.16;5013304;28;20550;-67
2021/05/22 11:27:48;;;;;;;0.80;0.50;;;;;;;17.60;34.81;96108.00;5030195;28;20631;-67
2021/05/22 11:30:20;;;;;;;4.38;0.63;;;;;;;17.33;34.00;96109.38;5031231;28;20542;-67
2021/05/22 11:32:53;;;;;;;0.50;0.50;;;;;;;17.49;33.19;96109.97;5030433;28;20343;-67
2021/05/22 11:35:49;;;;;;;0.68;0.60;;;;;;;17.45;33.42;96101.00;5031226;28;20183;-68
2021/05/22 11:38:21;;;;;;;0.50;0.50;;;;;;;17.29;33.49;96100.44;5028443;28;20179;-67
2021/05/22 11:40:51;;;;;;;0.40;0.40;;;;;;;17.00;33.77;96103.19;5030178;28;20193;-67